createdAt,value
2017-03-21T00:00:15.010Z,0
2017-03-21T00:01:26.009Z,0
2017-03-21T00:02:36.999Z,0
2017-03-21T00:03:47.996Z,0
2017-03-21T00:04:58.992Z,0
2017-03-21T00:06:09.976Z,0
2017-03-21T00:07:20.971Z,0
2017-03-21T00:08:31.981Z,0
2017-03-21T00:09:42.983Z,0
2017-03-21T00:10:54.026Z,0
2017-03-21T00:12:05.218Z,0
2017-03-21T00:13:16.210Z,0
2017-03-21T00:14:27.218Z,0
2017-03-21T00:15:38.420Z,0
2017-03-21T00:16:49.407Z,0
2017-03-21T00:18:00.413Z,0
2017-03-21T00:19:11.416Z,0
2017-03-21T00:20:22.614Z,0
2017-03-21T00:21:33.652Z,0
2017-03-21T00:22:44.658Z,0
2017-03-21T00:23:55.654Z,0
2017-03-21T00:25:06.649Z,0
2017-03-21T00:26:17.662Z,0
2017-03-21T00:27:28.648Z,0
2017-03-21T00:28:39.641Z,0
2017-03-21T00:29:50.631Z,0
2017-03-21T00:31:01.626Z,0
2017-03-21T00:32:12.665Z,0
2017-03-21T00:33:23.663Z,0
2017-03-21T00:34:34.659Z,0
2017-03-21T00:35:45.855Z,0
2017-03-21T00:36:56.841Z,0
2017-03-21T00:38:08.041Z,0
2017-03-21T00:39:19.042Z,0
2017-03-21T00:40:30.023Z,0
2017-03-21T00:41:41.014Z,0
2017-03-21T00:42:52.015Z,0
2017-03-21T00:44:03.216Z,0
2017-03-21T00:45:14.211Z,0
2017-03-21T00:46:25.203Z,0
2017-03-21T00:47:36.199Z,0
2017-03-21T00:48:47.487Z,0
2017-03-21T00:49:58.481Z,0
2017-03-21T00:51:09.469Z,0
2017-03-21T00:52:20.469Z,0
2017-03-21T00:53:31.478Z,0
2017-03-21T00:54:42.470Z,0
2017-03-21T00:55:53.461Z,0
2017-03-21T00:57:04.464Z,0
2017-03-21T00:58:15.480Z,0
2017-03-21T00:59:26.538Z,0
2017-03-21T01:00:37.525Z,0
2017-03-21T01:01:48.521Z,0
2017-03-21T01:02:59.514Z,0
2017-03-21T01:04:10.521Z,0
2017-03-21T01:05:21.510Z,0
2017-03-21T01:06:32.510Z,0
2017-03-21T01:07:43.504Z,0
2017-03-21T01:08:54.511Z,0
2017-03-21T01:10:05.564Z,0
2017-03-21T01:11:16.561Z,0
2017-03-21T01:12:27.762Z,0
2017-03-21T01:13:38.760Z,0
2017-03-21T01:14:49.756Z,0
2017-03-21T01:16:00.743Z,0
2017-03-21T01:17:11.743Z,0
2017-03-21T01:18:22.935Z,0
2017-03-21T01:19:34.338Z,0
2017-03-21T01:20:45.579Z,0
2017-03-21T01:21:56.569Z,0
2017-03-21T01:23:07.765Z,0
2017-03-21T01:24:18.771Z,0
2017-03-21T01:25:29.754Z,0
2017-03-21T01:26:40.741Z,0
2017-03-21T01:27:52.141Z,0
2017-03-21T01:29:03.137Z,0
2017-03-21T01:30:14.137Z,0
2017-03-21T01:31:25.130Z,0
2017-03-21T01:32:36.322Z,0
2017-03-21T01:33:47.318Z,0
2017-03-21T01:34:58.297Z,0
2017-03-21T01:36:09.285Z,0
2017-03-21T01:37:20.526Z,0
2017-03-21T01:38:31.528Z,0
2017-03-21T01:39:42.507Z,0
2017-03-21T01:40:53.500Z,0
2017-03-21T01:42:04.486Z,0
2017-03-21T01:43:15.474Z,0
2017-03-21T01:44:26.483Z,0
2017-03-21T01:45:37.481Z,0
2017-03-21T01:46:48.459Z,0
2017-03-21T01:47:59.507Z,0
2017-03-21T01:49:10.707Z,0
2017-03-21T01:50:21.743Z,0
2017-03-21T01:51:32.734Z,0
2017-03-21T01:52:43.733Z,0
2017-03-21T01:53:54.748Z,0
2017-03-21T01:55:05.959Z,0
2017-03-21T01:56:16.940Z,0
2017-03-21T01:57:27.934Z,0
2017-03-21T01:58:38.983Z,0
2017-03-21T01:59:49.975Z,0
2017-03-21T02:01:00.971Z,0
2017-03-21T02:02:11.962Z,0
2017-03-21T02:03:22.961Z,0
2017-03-21T02:04:34.164Z,0
2017-03-21T02:05:45.155Z,0
2017-03-21T02:06:56.145Z,0
2017-03-21T02:08:07.548Z,0
2017-03-21T02:09:18.800Z,0
2017-03-21T02:10:30.009Z,0
2017-03-21T02:11:41.245Z,0
2017-03-21T02:12:52.442Z,0
2017-03-21T02:14:03.441Z,0
2017-03-21T02:15:14.468Z,0
2017-03-21T02:16:25.457Z,0
2017-03-21T02:17:36.908Z,0
2017-03-21T02:18:48.107Z,0
2017-03-21T02:19:59.109Z,0
2017-03-21T02:21:10.101Z,0
2017-03-21T02:22:21.085Z,0
2017-03-21T02:23:32.078Z,0
2017-03-21T02:24:43.281Z,0
2017-03-21T02:25:54.527Z,0
2017-03-21T02:27:05.528Z,0
2017-03-21T02:28:16.725Z,0
2017-03-21T02:29:27.732Z,0
2017-03-21T02:30:38.728Z,0
2017-03-21T02:31:49.725Z,0
2017-03-21T02:33:00.715Z,0
2017-03-21T02:34:11.708Z,0
2017-03-21T02:35:22.911Z,0
2017-03-21T02:36:33.955Z,0
2017-03-21T02:37:44.964Z,0
2017-03-21T02:38:55.967Z,0
2017-03-21T02:40:06.998Z,0
2017-03-21T02:41:18.194Z,0
2017-03-21T02:42:29.389Z,0
2017-03-21T02:43:40.595Z,0
2017-03-21T02:44:51.780Z,0
2017-03-21T02:46:02.770Z,0
2017-03-21T02:47:13.811Z,0
2017-03-21T02:48:24.808Z,0
2017-03-21T02:49:35.805Z,0
2017-03-21T02:50:46.792Z,0
2017-03-21T02:51:57.786Z,0
2017-03-21T02:53:08.771Z,0
2017-03-21T02:54:19.784Z,0
2017-03-21T02:55:30.978Z,0
2017-03-21T02:56:41.973Z,0
2017-03-21T02:57:53.019Z,0
2017-03-21T02:59:04.013Z,0
2017-03-21T03:00:15.005Z,0
2017-03-21T03:01:25.994Z,0
2017-03-21T03:02:37.191Z,0
2017-03-21T03:03:48.192Z,0
2017-03-21T03:04:59.195Z,0
2017-03-21T03:06:10.214Z,0
2017-03-21T03:07:21.209Z,0
2017-03-21T03:08:32.413Z,0
2017-03-21T03:09:43.406Z,0
2017-03-21T03:10:54.610Z,0
2017-03-21T03:12:05.622Z,0
2017-03-21T03:13:16.857Z,0
2017-03-21T03:14:27.901Z,0
2017-03-21T03:15:38.896Z,0
2017-03-21T03:16:49.880Z,0
2017-03-21T03:18:01.073Z,0
2017-03-21T03:19:12.063Z,0
2017-03-21T03:20:23.051Z,0
2017-03-21T03:21:34.253Z,0
2017-03-21T03:22:45.262Z,0
2017-03-21T03:23:56.473Z,0
2017-03-21T03:25:07.517Z,0
2017-03-21T03:26:18.711Z,0
2017-03-21T03:27:29.706Z,0
2017-03-21T03:28:40.710Z,0
2017-03-21T03:29:51.703Z,0
2017-03-21T03:31:02.692Z,0
2017-03-21T03:32:13.685Z,0
2017-03-21T03:33:24.683Z,0
2017-03-21T03:34:35.684Z,0
2017-03-21T03:35:46.926Z,0
2017-03-21T03:36:57.924Z,0
2017-03-21T03:38:08.919Z,0
2017-03-21T03:39:20.160Z,0
2017-03-21T03:40:31.406Z,0
2017-03-21T03:41:42.600Z,0
2017-03-21T03:42:53.598Z,0
2017-03-21T03:44:04.586Z,0
2017-03-21T03:45:15.781Z,0
2017-03-21T03:46:27.021Z,0
2017-03-21T03:47:38.009Z,0
2017-03-21T03:48:48.996Z,0
2017-03-21T03:49:59.995Z,0
2017-03-21T03:51:11.192Z,0
2017-03-21T03:52:22.387Z,0
2017-03-21T03:53:33.383Z,0
2017-03-21T03:54:44.574Z,0
2017-03-21T03:55:55.563Z,0
2017-03-21T03:57:06.559Z,0
2017-03-21T03:58:17.564Z,0
2017-03-21T03:59:28.561Z,0
2017-03-21T04:00:39.557Z,0
2017-03-21T04:01:50.746Z,0
2017-03-21T04:03:01.746Z,0
2017-03-21T04:04:12.739Z,0
2017-03-21T04:05:23.733Z,0
2017-03-21T04:06:34.723Z,0
2017-03-21T04:07:45.976Z,0
2017-03-21T04:08:56.969Z,0
2017-03-21T04:10:07.968Z,0
2017-03-21T04:11:18.970Z,0
2017-03-21T04:12:29.962Z,0
2017-03-21T04:13:41.161Z,0
2017-03-21T04:14:52.354Z,0
2017-03-21T04:16:03.354Z,0
2017-03-21T04:17:14.348Z,0
2017-03-21T04:18:25.396Z,0
2017-03-21T04:19:36.392Z,0
2017-03-21T04:20:47.369Z,0
2017-03-21T04:21:58.350Z,0
2017-03-21T04:23:09.354Z,0
2017-03-21T04:24:20.549Z,0
2017-03-21T04:25:31.741Z,0
2017-03-21T04:26:42.929Z,0
2017-03-21T04:27:53.932Z,0
2017-03-21T04:29:04.973Z,0
2017-03-21T04:30:15.969Z,0
2017-03-21T04:31:26.966Z,0
2017-03-21T04:32:38.167Z,0
2017-03-21T04:33:49.166Z,0
2017-03-21T04:35:00.159Z,0
2017-03-21T04:36:11.152Z,0
2017-03-21T04:37:22.145Z,0
2017-03-21T04:38:33.151Z,0
2017-03-21T04:39:44.596Z,0
2017-03-21T04:40:55.626Z,0
2017-03-21T04:42:06.826Z,0
2017-03-21T04:43:18.027Z,0
2017-03-21T04:44:29.018Z,0
2017-03-21T04:45:40.016Z,0
2017-03-21T04:46:51.206Z,0
2017-03-21T04:48:02.200Z,0
2017-03-21T04:49:13.395Z,0
2017-03-21T04:50:24.385Z,0
2017-03-21T04:51:35.391Z,0
2017-03-21T04:52:46.388Z,0
2017-03-21T04:53:57.387Z,0
2017-03-21T04:55:08.635Z,0
2017-03-21T04:56:19.623Z,0
2017-03-21T04:57:30.614Z,0
2017-03-21T04:58:41.614Z,0
2017-03-21T04:59:52.627Z,0
2017-03-21T05:01:03.816Z,0
2017-03-21T05:02:15.205Z,0
2017-03-21T05:03:26.204Z,0
2017-03-21T05:04:37.198Z,0
2017-03-21T05:05:48.692Z,0
2017-03-21T05:06:59.682Z,0
2017-03-21T05:08:10.689Z,0
2017-03-21T05:09:21.690Z,0
2017-03-21T05:10:32.883Z,0
2017-03-21T05:11:43.863Z,0
2017-03-21T05:12:54.862Z,0
2017-03-21T05:14:05.851Z,0
2017-03-21T05:15:16.833Z,0
2017-03-21T05:16:28.482Z,0
2017-03-21T05:17:39.487Z,0
2017-03-21T05:18:50.495Z,0
2017-03-21T05:20:01.493Z,0
2017-03-21T05:21:12.478Z,0
2017-03-21T05:22:23.471Z,0
2017-03-21T05:23:34.664Z,0
2017-03-21T05:24:45.862Z,5
2017-03-21T05:25:56.865Z,5
2017-03-21T05:27:07.899Z,5
2017-03-21T05:28:18.894Z,5
2017-03-21T05:29:29.896Z,5
2017-03-21T05:30:41.105Z,5
2017-03-21T05:31:52.120Z,5
2017-03-21T05:33:03.114Z,10
2017-03-21T05:34:14.113Z,10
2017-03-21T05:35:25.313Z,10
2017-03-21T05:36:36.709Z,10
2017-03-21T05:37:47.698Z,15
2017-03-21T05:38:58.912Z,20
2017-03-21T05:40:09.909Z,20
2017-03-21T05:41:20.905Z,25
2017-03-21T05:42:31.892Z,25
2017-03-21T05:43:42.888Z,30
2017-03-21T05:44:54.089Z,35
2017-03-21T05:46:05.476Z,35
2017-03-21T05:47:16.468Z,40
2017-03-21T05:48:27.462Z,40
2017-03-21T05:49:38.455Z,40
2017-03-21T05:50:49.458Z,40
2017-03-21T05:52:00.451Z,40
2017-03-21T05:53:11.498Z,40
2017-03-21T05:54:22.493Z,40
2017-03-21T05:55:33.684Z,40
2017-03-21T05:56:44.675Z,45
2017-03-21T05:57:55.866Z,55
2017-03-21T05:59:06.866Z,55
2017-03-21T06:00:17.855Z,60
2017-03-21T06:01:28.840Z,65
2017-03-21T06:02:40.037Z,70
2017-03-21T06:03:51.096Z,80
2017-03-21T06:05:02.077Z,100
2017-03-21T06:06:13.063Z,125
2017-03-21T06:07:24.084Z,140
2017-03-21T06:08:35.088Z,115
2017-03-21T06:09:46.077Z,110
2017-03-21T06:10:57.068Z,125
2017-03-21T06:12:08.268Z,135
2017-03-21T06:13:19.468Z,155
2017-03-21T06:14:30.717Z,170
2017-03-21T06:15:41.711Z,200
2017-03-21T06:16:52.696Z,210
2017-03-21T06:18:03.682Z,295
2017-03-21T06:19:14.718Z,335
2017-03-21T06:20:25.911Z,355
2017-03-21T06:21:36.900Z,430
2017-03-21T06:22:48.105Z,445
2017-03-21T06:23:59.305Z,445
2017-03-21T06:25:10.299Z,360
2017-03-21T06:26:21.480Z,385
2017-03-21T06:27:32.479Z,300
2017-03-21T06:28:43.480Z,345
2017-03-21T06:29:54.471Z,350
2017-03-21T06:31:05.515Z,330
2017-03-21T06:32:16.518Z,260
2017-03-21T06:33:27.526Z,295
2017-03-21T06:34:38.505Z,310
2017-03-21T06:35:49.700Z,285
2017-03-21T06:37:00.687Z,280
2017-03-21T06:38:11.684Z,280
2017-03-21T06:39:22.690Z,245
2017-03-21T06:40:33.688Z,235
2017-03-21T06:41:44.723Z,245
2017-03-21T06:42:55.717Z,255
2017-03-21T06:44:06.710Z,275
2017-03-21T06:45:17.699Z,305
2017-03-21T06:46:28.681Z,355
2017-03-21T06:47:39.685Z,325
2017-03-21T06:48:50.877Z,375
2017-03-21T06:50:02.087Z,370
2017-03-21T06:51:13.072Z,360
2017-03-21T06:52:24.322Z,455
2017-03-21T06:53:35.522Z,385
2017-03-21T06:54:46.518Z,260
2017-03-21T06:55:57.517Z,260
2017-03-21T06:57:08.516Z,295
2017-03-21T06:58:19.508Z,355
2017-03-21T06:59:30.507Z,525
2017-03-21T07:00:41.503Z,615
2017-03-21T07:01:52.491Z,385
2017-03-21T07:03:03.533Z,255
2017-03-21T07:04:14.530Z,210
2017-03-21T07:05:25.512Z,205
2017-03-21T07:06:36.717Z,270
2017-03-21T07:07:47.727Z,185
2017-03-21T07:08:58.729Z,175
2017-03-21T07:10:09.723Z,140
2017-03-21T07:11:20.715Z,210
2017-03-21T07:12:31.904Z,275
2017-03-21T07:13:42.904Z,395
2017-03-21T07:14:54.083Z,435
2017-03-21T07:16:05.071Z,455
2017-03-21T07:17:16.073Z,335
2017-03-21T07:18:27.073Z,290
2017-03-21T07:19:38.120Z,220
2017-03-21T07:20:49.314Z,205
2017-03-21T07:22:00.310Z,320
2017-03-21T07:23:11.317Z,455
2017-03-21T07:24:22.315Z,430
2017-03-21T07:25:33.303Z,485
2017-03-21T07:26:44.293Z,605
2017-03-21T07:27:55.496Z,310
2017-03-21T07:29:06.489Z,305
2017-03-21T07:30:17.476Z,265
2017-03-21T07:31:28.670Z,275
2017-03-21T07:32:39.657Z,220
2017-03-21T07:33:50.655Z,220
2017-03-21T07:35:01.660Z,250
2017-03-21T07:36:12.683Z,275
2017-03-21T07:37:23.870Z,365
2017-03-21T07:38:34.878Z,530
2017-03-21T07:39:45.873Z,630
2017-03-21T07:40:57.117Z,600
2017-03-21T07:42:08.118Z,550
2017-03-21T07:43:19.117Z,425
2017-03-21T07:44:30.160Z,565
2017-03-21T07:45:41.157Z,705
2017-03-21T07:46:52.187Z,540
2017-03-21T07:48:03.178Z,690
2017-03-21T07:49:14.179Z,480
2017-03-21T07:50:25.173Z,770
2017-03-21T07:51:36.422Z,1130
2017-03-21T07:52:47.622Z,550
2017-03-21T07:53:58.621Z,435
2017-03-21T07:55:09.626Z,625
2017-03-21T07:56:20.826Z,560
2017-03-21T07:57:31.827Z,1350
2017-03-21T07:58:42.820Z,520
2017-03-21T07:59:53.817Z,515
2017-03-21T08:01:04.814Z,425
2017-03-21T08:02:16.263Z,400
2017-03-21T08:03:27.267Z,1255
2017-03-21T08:04:38.267Z,1375
2017-03-21T08:05:49.256Z,1590
2017-03-21T08:07:00.252Z,1470
2017-03-21T08:08:11.265Z,845
2017-03-21T08:09:22.272Z,1285
2017-03-21T08:10:33.271Z,695
2017-03-21T08:11:44.462Z,690
2017-03-21T08:12:55.709Z,2545
2017-03-21T08:14:06.911Z,2320
2017-03-21T08:15:18.100Z,1755
2017-03-21T08:16:29.097Z,845
2017-03-21T08:17:40.497Z,1185
2017-03-21T08:18:51.506Z,465
2017-03-21T08:20:02.559Z,400
2017-03-21T08:21:13.553Z,1675
2017-03-21T08:22:24.756Z,640
2017-03-21T08:23:36.208Z,1590
2017-03-21T08:24:47.210Z,1010
2017-03-21T08:25:58.242Z,710
2017-03-21T08:27:09.235Z,1380
2017-03-21T08:28:20.445Z,485
2017-03-21T08:29:31.448Z,1065
2017-03-21T08:30:42.447Z,1385
2017-03-21T08:31:53.441Z,1250
2017-03-21T08:33:04.443Z,410
2017-03-21T08:34:15.700Z,555
2017-03-21T08:35:26.692Z,665
2017-03-21T08:36:37.892Z,1665
2017-03-21T08:37:48.881Z,1805
2017-03-21T08:39:00.084Z,1705
2017-03-21T08:40:11.075Z,1255
2017-03-21T08:41:22.062Z,970
2017-03-21T08:42:33.065Z,805
2017-03-21T08:43:44.266Z,2580
2017-03-21T08:44:55.279Z,2465
2017-03-21T08:46:06.272Z,2065
2017-03-21T08:47:17.269Z,2550
2017-03-21T08:48:28.476Z,2445
2017-03-21T08:49:39.472Z,2365
2017-03-21T08:50:50.475Z,2120
2017-03-21T08:52:01.471Z,1730
2017-03-21T08:53:12.474Z,2120
2017-03-21T08:54:23.478Z,2945
2017-03-21T08:55:34.483Z,2825
2017-03-21T08:56:45.492Z,3165
2017-03-21T08:57:56.492Z,3180
2017-03-21T08:59:07.489Z,1915
2017-03-21T09:00:18.741Z,2170
2017-03-21T09:01:29.742Z,970
2017-03-21T09:02:40.955Z,2250
2017-03-21T09:03:51.973Z,870
2017-03-21T09:05:02.974Z,2845
2017-03-21T09:06:14.171Z,1355
2017-03-21T09:07:25.176Z,1455
2017-03-21T09:08:36.187Z,1140
2017-03-21T09:09:47.190Z,1505
2017-03-21T09:10:58.436Z,780
2017-03-21T09:12:09.629Z,775
2017-03-21T09:13:20.619Z,885
2017-03-21T09:14:31.621Z,630
2017-03-21T09:15:42.627Z,1825
2017-03-21T09:16:53.629Z,1160
2017-03-21T09:18:04.635Z,1370
2017-03-21T09:19:15.643Z,1055
2017-03-21T09:20:26.670Z,525
2017-03-21T09:21:37.665Z,905
2017-03-21T09:22:48.861Z,420
2017-03-21T09:23:59.855Z,440
2017-03-21T09:25:10.857Z,485
2017-03-21T09:26:22.251Z,515
2017-03-21T09:27:33.287Z,535
2017-03-21T09:28:44.492Z,530
2017-03-21T09:29:55.493Z,555
2017-03-21T09:31:06.495Z,550
2017-03-21T09:32:17.488Z,540
2017-03-21T09:33:28.486Z,725
2017-03-21T09:34:39.485Z,655
2017-03-21T09:35:50.488Z,560
2017-03-21T09:37:01.472Z,570
2017-03-21T09:38:12.513Z,770
2017-03-21T09:39:23.711Z,570
2017-03-21T09:40:34.709Z,540
2017-03-21T09:41:45.708Z,315
2017-03-21T09:42:56.709Z,255
2017-03-21T09:44:07.704Z,290
2017-03-21T09:45:18.698Z,320
2017-03-21T09:46:29.892Z,330
2017-03-21T09:47:40.890Z,335
2017-03-21T09:48:51.934Z,365
2017-03-21T09:50:02.936Z,360
2017-03-21T09:51:13.951Z,335
2017-03-21T09:52:25.145Z,330
2017-03-21T09:53:36.139Z,325
2017-03-21T09:54:47.381Z,300
2017-03-21T09:55:58.379Z,280
2017-03-21T09:57:09.384Z,270
2017-03-21T09:58:20.369Z,275
2017-03-21T09:59:31.757Z,280
2017-03-21T10:00:42.957Z,285
2017-03-21T10:01:53.956Z,280
2017-03-21T10:03:04.945Z,260
2017-03-21T10:04:15.943Z,255
2017-03-21T10:05:27.185Z,240
2017-03-21T10:06:38.183Z,225
2017-03-21T10:07:49.181Z,220
2017-03-21T10:09:00.165Z,205
2017-03-21T10:10:11.156Z,185
2017-03-21T10:11:22.160Z,195
2017-03-21T10:12:33.151Z,190
2017-03-21T10:13:44.146Z,215
2017-03-21T10:14:55.142Z,225
2017-03-21T10:16:06.189Z,245
2017-03-21T10:17:17.391Z,235
2017-03-21T10:18:28.595Z,230
2017-03-21T10:19:39.586Z,230
2017-03-21T10:20:50.588Z,225
2017-03-21T10:22:01.576Z,235
2017-03-21T10:23:12.564Z,235
2017-03-21T10:24:23.562Z,220
2017-03-21T10:25:34.557Z,230
2017-03-21T10:26:45.598Z,245
2017-03-21T10:27:56.587Z,270
2017-03-21T10:29:07.584Z,295
2017-03-21T10:30:18.769Z,285
2017-03-21T10:31:29.752Z,280
2017-03-21T10:32:40.788Z,280
2017-03-21T10:33:51.777Z,290
2017-03-21T10:35:02.767Z,295
2017-03-21T10:36:13.760Z,285
2017-03-21T10:37:24.964Z,260
2017-03-21T10:38:36.159Z,240
2017-03-21T10:39:47.152Z,200
2017-03-21T10:40:58.145Z,165
2017-03-21T10:42:09.136Z,155
2017-03-21T10:43:20.587Z,165
2017-03-21T10:44:31.778Z,175
2017-03-21T10:45:42.975Z,185
2017-03-21T10:46:54.176Z,200
2017-03-21T10:48:05.167Z,215
2017-03-21T10:49:16.151Z,250
2017-03-21T10:50:27.135Z,275
2017-03-21T10:51:38.124Z,270
2017-03-21T10:52:49.114Z,255
2017-03-21T10:54:00.357Z,285
2017-03-21T10:55:11.352Z,300
2017-03-21T10:56:22.342Z,310
2017-03-21T10:57:33.330Z,295
2017-03-21T10:58:44.318Z,305
2017-03-21T10:59:55.558Z,315
2017-03-21T11:01:06.749Z,320
2017-03-21T11:02:17.739Z,305
2017-03-21T11:03:28.746Z,320
2017-03-21T11:04:39.824Z,380
2017-03-21T11:05:50.826Z,410
2017-03-21T11:07:01.813Z,390
2017-03-21T11:08:12.804Z,330
2017-03-21T11:09:23.791Z,290
2017-03-21T11:10:35.032Z,235
2017-03-21T11:11:46.031Z,245
2017-03-21T11:12:57.221Z,285
2017-03-21T11:14:08.416Z,325
2017-03-21T11:15:19.405Z,270
2017-03-21T11:16:30.398Z,220
2017-03-21T11:17:41.393Z,205
2017-03-21T11:18:52.388Z,205
2017-03-21T11:20:03.387Z,240
2017-03-21T11:21:14.628Z,355
2017-03-21T11:22:25.612Z,505
2017-03-21T11:23:36.631Z,545
2017-03-21T11:24:47.629Z,1110
2017-03-21T11:25:58.614Z,775
2017-03-21T11:27:09.603Z,390
2017-03-21T11:28:20.591Z,345
2017-03-21T11:29:31.582Z,235
2017-03-21T11:30:42.785Z,175
2017-03-21T11:31:53.870Z,140
2017-03-21T11:33:04.863Z,120
2017-03-21T11:34:15.855Z,100
2017-03-21T11:35:26.852Z,90
2017-03-21T11:36:37.838Z,80
2017-03-21T11:37:49.043Z,80
2017-03-21T11:39:00.034Z,85
2017-03-21T11:40:11.032Z,95
2017-03-21T11:41:22.023Z,110
2017-03-21T11:42:33.061Z,120
2017-03-21T11:43:44.292Z,140
2017-03-21T11:44:55.288Z,180
2017-03-21T11:46:06.481Z,380
2017-03-21T11:47:17.473Z,870
2017-03-21T11:48:28.465Z,520
2017-03-21T11:49:39.464Z,360
2017-03-21T11:50:50.478Z,330
2017-03-21T11:52:01.496Z,285
2017-03-21T11:53:12.494Z,250
2017-03-21T11:54:23.490Z,230
2017-03-21T11:55:34.683Z,230
2017-03-21T11:56:45.682Z,255
2017-03-21T11:57:56.670Z,305
2017-03-21T11:59:07.663Z,395
2017-03-21T12:00:18.697Z,480
2017-03-21T12:01:29.891Z,695
2017-03-21T12:02:40.890Z,795
2017-03-21T12:03:52.143Z,1125
2017-03-21T12:05:03.136Z,995
2017-03-21T12:06:14.126Z,960
2017-03-21T12:07:25.325Z,985
2017-03-21T12:08:36.530Z,1010
2017-03-21T12:09:47.723Z,1055
2017-03-21T12:10:58.920Z,940
2017-03-21T12:12:10.161Z,1100
2017-03-21T12:13:21.382Z,1035
2017-03-21T12:14:32.636Z,1000
2017-03-21T12:15:43.644Z,1055
2017-03-21T12:16:54.632Z,970
2017-03-21T12:18:05.636Z,940
2017-03-21T12:19:16.641Z,880
2017-03-21T12:20:27.635Z,935
2017-03-21T12:21:38.831Z,1025
2017-03-21T12:22:49.822Z,1065
2017-03-21T12:24:01.017Z,1020
2017-03-21T12:25:12.508Z,1160
2017-03-21T12:26:23.506Z,1180
2017-03-21T12:27:34.915Z,1190
2017-03-21T12:28:45.912Z,675
2017-03-21T12:29:56.913Z,680
2017-03-21T12:31:07.936Z,665
2017-03-21T12:32:18.937Z,630
2017-03-21T12:33:30.138Z,665
2017-03-21T12:34:41.142Z,630
2017-03-21T12:35:52.140Z,480
2017-03-21T12:37:03.128Z,905
2017-03-21T12:38:14.127Z,615
2017-03-21T12:39:25.126Z,950
2017-03-21T12:40:36.178Z,1065
2017-03-21T12:41:47.176Z,615
2017-03-21T12:42:58.183Z,520
2017-03-21T12:44:09.190Z,770
2017-03-21T12:45:20.191Z,675
2017-03-21T12:46:31.183Z,685
2017-03-21T12:47:42.177Z,960
2017-03-21T12:48:53.177Z,960
2017-03-21T12:50:04.375Z,855
2017-03-21T12:51:15.432Z,765
2017-03-21T12:52:26.432Z,735
2017-03-21T12:53:37.432Z,650
2017-03-21T12:54:48.428Z,700
2017-03-21T12:55:59.440Z,680
2017-03-21T12:57:10.634Z,585
2017-03-21T12:58:21.638Z,575
2017-03-21T12:59:32.624Z,675
2017-03-21T13:00:43.629Z,515
2017-03-21T13:01:54.873Z,500
2017-03-21T13:03:05.869Z,460
2017-03-21T13:04:16.865Z,425
2017-03-21T13:05:27.879Z,400
2017-03-21T13:06:38.877Z,375
2017-03-21T13:07:49.875Z,345
2017-03-21T13:09:00.935Z,315
2017-03-21T13:10:11.925Z,315
2017-03-21T13:11:22.925Z,395
2017-03-21T13:12:33.919Z,435
2017-03-21T13:13:44.914Z,535
2017-03-21T13:14:55.917Z,480
2017-03-21T13:16:06.912Z,445
2017-03-21T13:17:17.908Z,455
2017-03-21T13:18:28.925Z,465
2017-03-21T13:19:39.917Z,470
2017-03-21T13:20:51.113Z,455
2017-03-21T13:22:02.117Z,430
2017-03-21T13:23:13.160Z,405
2017-03-21T13:24:24.188Z,390
2017-03-21T13:25:35.175Z,405
2017-03-21T13:26:46.374Z,405
2017-03-21T13:27:57.363Z,385
2017-03-21T13:29:08.381Z,410
2017-03-21T13:30:19.379Z,420
2017-03-21T13:31:30.368Z,460
2017-03-21T13:32:41.369Z,525
2017-03-21T13:33:52.405Z,550
2017-03-21T13:35:03.599Z,545
2017-03-21T13:36:14.589Z,555
2017-03-21T13:37:25.579Z,535
2017-03-21T13:38:36.773Z,520
2017-03-21T13:39:47.774Z,505
2017-03-21T13:40:58.763Z,480
2017-03-21T13:42:09.756Z,465
2017-03-21T13:43:20.749Z,450
2017-03-21T13:44:31.789Z,450
2017-03-21T13:45:42.775Z,450
2017-03-21T13:46:53.968Z,465
2017-03-21T13:48:05.160Z,465
2017-03-21T13:49:16.152Z,485
2017-03-21T13:50:27.154Z,470
2017-03-21T13:51:38.142Z,515
2017-03-21T13:52:49.146Z,515
2017-03-21T13:54:00.143Z,555
2017-03-21T13:55:11.140Z,510
2017-03-21T13:56:22.140Z,510
2017-03-21T13:57:33.133Z,490
2017-03-21T13:58:44.126Z,475
2017-03-21T13:59:55.112Z,455
2017-03-21T14:01:06.121Z,435
2017-03-21T14:02:17.111Z,410
2017-03-21T14:03:28.102Z,440
2017-03-21T14:04:39.095Z,430
2017-03-21T14:05:50.175Z,440
2017-03-21T14:07:01.164Z,535
2017-03-21T14:08:12.356Z,520
2017-03-21T14:09:23.361Z,445
2017-03-21T14:10:35.018Z,545
2017-03-21T14:11:46.003Z,540
2017-03-21T14:12:57.394Z,485
2017-03-21T14:14:08.799Z,405
2017-03-21T14:15:19.788Z,355
2017-03-21T14:16:30.986Z,355
2017-03-21T14:17:41.974Z,360
2017-03-21T14:18:53.179Z,335
2017-03-21T14:20:04.185Z,330
2017-03-21T14:21:15.626Z,330
2017-03-21T14:22:26.630Z,335
2017-03-21T14:23:37.621Z,385
2017-03-21T14:24:48.606Z,370
2017-03-21T14:25:59.599Z,360
2017-03-21T14:27:10.632Z,340
2017-03-21T14:28:21.827Z,335
2017-03-21T14:29:32.867Z,330
2017-03-21T14:30:44.062Z,330
2017-03-21T14:31:55.057Z,330
2017-03-21T14:33:06.056Z,335
2017-03-21T14:34:17.048Z,340
2017-03-21T14:35:28.035Z,345
2017-03-21T14:36:39.082Z,345
2017-03-21T14:37:50.081Z,350
2017-03-21T14:39:01.079Z,360
2017-03-21T14:40:12.279Z,365
2017-03-21T14:41:23.271Z,360
2017-03-21T14:42:34.268Z,360
2017-03-21T14:43:45.509Z,350
2017-03-21T14:44:56.514Z,340
2017-03-21T14:46:07.707Z,340
2017-03-21T14:47:18.751Z,335
2017-03-21T14:48:29.747Z,325
2017-03-21T14:49:40.938Z,325
2017-03-21T14:50:51.937Z,325
2017-03-21T14:52:02.935Z,315
2017-03-21T14:53:13.943Z,320
2017-03-21T14:54:24.961Z,325
2017-03-21T14:55:35.960Z,330
2017-03-21T14:56:46.953Z,320
2017-03-21T14:57:58.141Z,310
2017-03-21T14:59:09.135Z,305
2017-03-21T15:00:20.134Z,305
2017-03-21T15:01:31.128Z,300
2017-03-21T15:02:42.322Z,295
2017-03-21T15:03:53.376Z,305
2017-03-21T15:05:04.639Z,305
2017-03-21T15:06:15.652Z,295
2017-03-21T15:07:26.840Z,305
2017-03-21T15:08:37.832Z,300
2017-03-21T15:09:48.812Z,305
2017-03-21T15:10:59.811Z,300
2017-03-21T15:12:11.012Z,295
2017-03-21T15:13:22.005Z,290
2017-03-21T15:14:33.264Z,270
2017-03-21T15:15:44.457Z,260
2017-03-21T15:16:55.456Z,255
2017-03-21T15:18:06.447Z,255
2017-03-21T15:19:17.444Z,245
2017-03-21T15:20:28.439Z,255
2017-03-21T15:21:39.431Z,265
2017-03-21T15:22:50.424Z,260
2017-03-21T15:24:01.416Z,260
2017-03-21T15:25:12.656Z,260
2017-03-21T15:26:23.650Z,255
2017-03-21T15:27:34.642Z,250
2017-03-21T15:28:45.630Z,250
2017-03-21T15:29:56.839Z,255
2017-03-21T15:31:07.834Z,260
2017-03-21T15:32:19.018Z,255
2017-03-21T15:33:30.022Z,240
2017-03-21T15:34:41.218Z,230
2017-03-21T15:35:52.204Z,225
2017-03-21T15:37:03.206Z,225
2017-03-21T15:38:14.197Z,220
2017-03-21T15:39:25.379Z,225
2017-03-21T15:40:36.424Z,230
2017-03-21T15:41:47.424Z,225
2017-03-21T15:42:58.454Z,215
2017-03-21T15:44:09.450Z,215
2017-03-21T15:45:20.447Z,215
2017-03-21T15:46:31.489Z,210
2017-03-21T15:47:42.491Z,200
2017-03-21T15:48:53.495Z,195
2017-03-21T15:50:04.482Z,195
2017-03-21T15:51:15.722Z,190
2017-03-21T15:52:26.708Z,190
2017-03-21T15:53:37.705Z,185
2017-03-21T15:54:48.701Z,185
2017-03-21T15:55:59.717Z,185
2017-03-21T15:57:10.919Z,180
2017-03-21T15:58:21.907Z,185
2017-03-21T15:59:32.906Z,185
2017-03-21T16:00:43.909Z,185
2017-03-21T16:01:55.104Z,185
2017-03-21T16:03:06.088Z,180
2017-03-21T16:04:17.076Z,175
2017-03-21T16:05:28.276Z,170
2017-03-21T16:06:39.520Z,175
2017-03-21T16:07:50.510Z,175
2017-03-21T16:09:01.525Z,170
2017-03-21T16:10:12.518Z,160
2017-03-21T16:11:23.509Z,160
2017-03-21T16:12:34.555Z,160
2017-03-21T16:13:45.556Z,155
2017-03-21T16:14:56.553Z,155
2017-03-21T16:16:07.541Z,150
2017-03-21T16:17:18.940Z,140
2017-03-21T16:18:30.348Z,135
2017-03-21T16:19:41.333Z,130
2017-03-21T16:20:52.537Z,130
2017-03-21T16:22:03.534Z,125
2017-03-21T16:23:14.588Z,125
2017-03-21T16:24:25.576Z,120
2017-03-21T16:25:36.976Z,115
2017-03-21T16:26:47.966Z,115
2017-03-21T16:27:58.965Z,110
2017-03-21T16:29:10.356Z,110
2017-03-21T16:30:21.353Z,105
2017-03-21T16:31:32.554Z,100
2017-03-21T16:32:43.558Z,95
2017-03-21T16:33:54.810Z,95
2017-03-21T16:35:06.004Z,95
2017-03-21T16:36:17.042Z,85
2017-03-21T16:37:28.059Z,90
2017-03-21T16:38:39.063Z,80
2017-03-21T16:39:50.065Z,80